»·PEaware :: N35MU KTRM-KSAN

N35MU :: KTRM-KSAN

FLIGHT INFORMATION

Flight Status: Arrived
Operator: Privately registered:
United States
More flights under this callsign
Pilot: Tim M. (20242)
Aircraft: CESSNA 172 SKYHAWK
(C172)
More flights by this aircraft type
Origin: KTRM Desert Resorts Regl
United States
Destination: KSAN San Diego Intl-Lindbergh
United States
More flights between these airports :: More routes between these airports
Route: KSAS BLLYJ
File this flight plan on PilotEdge
Remarks: VFR
Altitude:
(Current/Filed)
6,500ft
Speed:
(Current/Filed)
115kts
Departed: 02-Oct-18 01:03 PM
Arrived: 02-Oct-18 01:55 PM
Distance/Time
Traveled:
75nm/0:52
Distance/Time
To Go:
Arrived

Flight Plot

Page will automatically refresh every two minutes.

Flight plan parsing failed; only flown route is shown


Map Options




Map Legend


Flown Route
Filed Route
Departure Airport
Arrival Airport
Navaid (VOR, NDB)
Fix

Horizontal Profiles

Position Reports

Time Latitude Longitude Heading Altitude Ground
Speed
02-Oct-18 12:59 33.632476 -116.154728 179 -113ft 0kts
02-Oct-18 13:00 33.632476 -116.154728 179 -113ft 0kts
02-Oct-18 13:01 33.632476 -116.154728 179 -113ft 0kts
02-Oct-18 13:02 33.630266 -116.154719 182 -113ft 31kts
02-Oct-18 13:03 33.622728 -116.154698 180 -117ft 25kts
02-Oct-18 13:04 33.620765 -116.156481 0 -117ft 8kts
02-Oct-18 13:05 33.626994 -116.156338 358 -113ft 71kts
02-Oct-18 13:06 33.650922 -116.153341 56 428ft 95kts
02-Oct-18 13:07 33.630949 -116.139013 174 950ft 98kts
02-Oct-18 13:08 33.601293 -116.140757 172 1345ft 121kts
02-Oct-18 13:09 33.568862 -116.128001 156 1748ft 124kts
02-Oct-18 13:10 33.537224 -116.111290 155 2148ft 124kts
02-Oct-18 13:11 33.505639 -116.094299 155 2547ft 125kts
02-Oct-18 13:12 33.473955 -116.077268 155 2946ft 125kts
02-Oct-18 13:13 33.442029 -116.060060 155 3346ft 126kts
02-Oct-18 13:14 33.409298 -116.042514 155 3500ft 134kts
02-Oct-18 13:15 33.375206 -116.024232 155 3500ft 135kts
02-Oct-18 13:16 33.341225 -116.006011 155 3499ft 135kts
02-Oct-18 13:17 33.307104 -115.987733 155 3499ft 135kts
02-Oct-18 13:18 33.273133 -115.969546 155 3500ft 135kts
02-Oct-18 13:19 33.239123 -115.964186 229 3498ft 134kts
02-Oct-18 13:20 33.221587 -116.001290 243 3774ft 125kts
02-Oct-18 13:21 33.206543 -116.038186 244 4170ft 124kts
02-Oct-18 13:22 33.191539 -116.075281 244 4569ft 124kts
02-Oct-18 13:23 33.176632 -116.112138 245 4969ft 122kts
02-Oct-18 13:24 33.162433 -116.147179 245 5360ft 117kts
02-Oct-18 13:25 33.148673 -116.181103 245 5755ft 113kts
02-Oct-18 13:26 33.135025 -116.214637 245 6155ft 111kts
02-Oct-18 13:27 33.121720 -116.247298 245 6531ft 111kts
02-Oct-18 13:28 33.107418 -116.282461 245 6564ft 121kts
02-Oct-18 13:29 33.092624 -116.318766 245 6584ft 123kts
02-Oct-18 13:30 33.077389 -116.356135 245 6509ft 129kts
02-Oct-18 13:31 33.061883 -116.394103 245 6504ft 127kts
02-Oct-18 13:32 33.047137 -116.430158 246 6676ft 117kts
02-Oct-18 13:33 33.033076 -116.464599 246 6875ft 115kts
02-Oct-18 13:34 33.019140 -116.498660 246 7074ft 114kts
02-Oct-18 13:35 33.005286 -116.532478 246 7272ft 113kts
02-Oct-18 13:36 32.991451 -116.566209 246 7471ft 112kts
02-Oct-18 13:37 32.977854 -116.599346 245 7505ft 116kts
02-Oct-18 13:38 32.963209 -116.634944 245 7296ft 123kts
02-Oct-18 13:39 32.948470 -116.670768 245 7107ft 124kts
02-Oct-18 13:40 32.933357 -116.707578 244 6910ft 124kts
02-Oct-18 13:41 32.918302 -116.744140 245 6715ft 124kts
02-Oct-18 13:42 32.903278 -116.780529 244 6443ft 127kts
02-Oct-18 13:43 32.888741 -116.815648 244 6084ft 129kts
02-Oct-18 13:44 32.872896 -116.853890 244 5691ft 129kts
02-Oct-18 13:45 32.857031 -116.893370 247 5028ft 137kts
02-Oct-18 13:46 32.843738 -116.934573 247 4498ft 127kts
02-Oct-18 13:47 32.820283 -116.958759 212 4488ft 124kts
02-Oct-18 13:48 32.805971 -116.994760 245 4496ft 123kts
02-Oct-18 13:49 32.793132 -117.029316 236 4496ft 111kts
02-Oct-18 13:50 32.775023 -117.055059 229 4498ft 85kts
02-Oct-18 13:51 32.760925 -117.074547 228 4398ft 76kts
02-Oct-18 13:52 32.747183 -117.093484 228 4081ft 75kts
02-Oct-18 13:53 32.734766 -117.113847 238 2935ft 79kts
02-Oct-18 13:54 32.724051 -117.135369 250 1645ft 76kts
02-Oct-18 13:55 32.725987 -117.157722 279 744ft 60kts
02-Oct-18 13:56 32.730544 -117.176808 280 104ft 56kts
02-Oct-18 13:57 32.733005 -117.187756 268 15ft 18kts
02-Oct-18 13:58 32.732467 -117.188906 254 14ft 0kts
02-Oct-18 13:59 32.731745 -117.191001 206 14ft 0kts
02-Oct-18 14:00 32.731745 -117.191001 206 14ft 0kts
02-Oct-18 14:01 32.731745 -117.191001 206 14ft 0kts
02-Oct-18 14:02 32.732062 -117.193349 285 14ft 0kts
02-Oct-18 14:03 32.732062 -117.193349 285 14ft 0kts

Navigation Log

Ident Type
Flight plan parsing failed, navigation log unavailable